createdAt,value
2023-01-27T00:05:37.041Z,100.00
2023-01-27T00:11:57.683Z,100.00
2023-01-27T00:17:59.954Z,100.00
2023-01-27T00:24:20.209Z,100.00
2023-01-27T00:30:22.097Z,100.00
2023-01-27T00:36:23.998Z,100.00
2023-01-27T00:42:25.986Z,100.00
2023-01-27T00:48:28.154Z,100.00
2023-01-27T00:54:30.045Z,100.00
2023-01-27T01:00:31.946Z,100.00
2023-01-27T01:06:33.884Z,100.00
2023-01-27T01:12:35.780Z,100.00
2023-01-27T01:18:39.039Z,100.00
2023-01-27T01:24:40.935Z,100.00
2023-01-27T01:30:42.920Z,100.00
2023-01-27T01:36:44.829Z,100.00
2023-01-27T01:43:15.136Z,100.00
2023-01-27T01:49:21.054Z,100.00
2023-01-27T01:55:23.985Z,100.00
2023-01-27T02:01:25.902Z,100.00
2023-01-27T02:07:51.384Z,100.00
2023-01-27T02:13:53.367Z,100.00
2023-01-27T02:20:47.096Z,100.00
2023-01-27T02:26:49.455Z,100.00
2023-01-27T02:32:51.444Z,100.00
2023-01-27T02:38:56.721Z,100.00
2023-01-27T02:44:58.594Z,100.00
2023-01-27T02:51:00.629Z,100.00
2023-01-27T02:57:02.569Z,100.00
2023-01-27T03:03:04.520Z,100.00
2023-01-27T03:09:06.543Z,100.00
2023-01-27T03:15:28.318Z,100.00
2023-01-27T03:21:30.240Z,100.00
2023-01-27T03:27:32.386Z,100.00
2023-01-27T03:33:35.595Z,100.00
2023-01-27T03:39:56.265Z,100.00
2023-01-27T03:46:17.135Z,100.00
2023-01-27T03:52:19.071Z,100.00
2023-01-27T03:58:31.967Z,100.00
2023-01-27T04:04:52.228Z,100.00
2023-01-27T04:11:12.395Z,100.00
2023-01-27T04:17:17.743Z,100.00
2023-01-27T04:23:19.639Z,100.00
2023-01-27T04:29:24.781Z,100.00
2023-01-27T04:35:37.455Z,100.00
2023-01-27T04:41:40.376Z,100.00
2023-01-27T04:47:42.259Z,100.00
2023-01-27T04:53:44.210Z,100.00
2023-01-27T04:59:46.095Z,100.00
2023-01-27T05:05:48.088Z,100.00
2023-01-27T05:11:49.989Z,100.00
2023-01-27T05:17:52.197Z,100.00
2023-01-27T05:23:54.222Z,100.00
2023-01-27T05:29:57.098Z,100.00
2023-01-27T05:36:01.387Z,100.00
2023-01-27T05:42:03.374Z,100.00
2023-01-27T05:48:05.586Z,100.00
2023-01-27T05:54:08.931Z,100.00
2023-01-27T06:00:11.632Z,100.00
2023-01-27T06:06:16.774Z,100.00
2023-01-27T06:12:18.656Z,100.00
2023-01-27T06:18:20.576Z,100.00
2023-01-27T06:24:24.054Z,100.00
2023-01-27T06:30:25.979Z,100.00
2023-01-27T06:36:27.843Z,100.00
2023-01-27T06:42:29.743Z,100.00
2023-01-27T06:48:31.904Z,100.00
2023-01-27T06:54:33.917Z,100.00
2023-01-27T07:00:36.923Z,100.00
2023-01-27T07:06:38.804Z,100.00
2023-01-27T07:12:40.746Z,100.00
2023-01-27T07:18:42.650Z,100.00
2023-01-27T07:24:44.546Z,100.00
2023-01-27T07:30:46.982Z,100.00
2023-01-27T07:36:48.896Z,100.00
2023-01-27T07:42:50.812Z,100.00
2023-01-27T07:48:52.847Z,100.00
2023-01-27T07:54:54.724Z,100.00
2023-01-27T08:00:56.661Z,100.00
2023-01-27T08:06:58.624Z,100.00
2023-01-27T08:13:00.551Z,100.00
2023-01-27T08:19:02.480Z,100.00
2023-01-27T08:25:04.747Z,100.00
2023-01-27T08:31:14.831Z,100.00
2023-01-27T08:37:16.807Z,100.00
2023-01-27T08:43:20.654Z,100.00
2023-01-27T08:49:22.570Z,100.00
2023-01-27T08:55:29.541Z,100.00
2023-01-27T09:01:31.511Z,100.00
2023-01-27T09:07:34.294Z,100.00
2023-01-27T09:13:36.185Z,100.00
2023-01-27T09:19:38.184Z,99.51
2023-01-27T09:25:40.215Z,99.38
2023-01-27T09:31:42.574Z,98.44
2023-01-27T09:37:54.092Z,97.92
2023-01-27T09:44:48.837Z,97.33
2023-01-27T09:51:06.307Z,96.95
2023-01-27T09:57:53.966Z,95.72
2023-01-27T10:04:23.387Z,94.02
2023-01-27T10:11:10.328Z,95.55
2023-01-27T10:17:20.929Z,96.03
2023-01-27T10:23:41.126Z,94.17
2023-01-27T10:29:56.631Z,94.13
2023-01-27T10:36:31.153Z,93.46
2023-01-27T10:42:47.445Z,92.19
2023-01-27T10:49:06.255Z,92.74
2023-01-27T10:55:25.610Z,90.31
2023-01-27T11:01:41.480Z,89.77
2023-01-27T11:07:52.593Z,89.77
2023-01-27T11:14:15.735Z,90.23
2023-01-27T11:20:54.556Z,92.37
2023-01-27T11:27:13.900Z,91.78
2023-01-27T11:33:34.805Z,91.56
2023-01-27T11:39:36.986Z,91.10
2023-01-27T11:45:39.122Z,88.68
2023-01-27T11:51:41.094Z,88.72
2023-01-27T11:58:18.894Z,89.27
2023-01-27T12:04:49.136Z,88.02
2023-01-27T12:10:52.257Z,89.15
2023-01-27T12:16:54.442Z,90.72
2023-01-27T12:23:19.937Z,90.87
2023-01-27T12:29:31.516Z,92.77
2023-01-27T12:35:36.415Z,93.46
2023-01-27T12:41:38.738Z,93.74
2023-01-27T12:47:40.657Z,93.76
2023-01-27T12:53:45.772Z,93.26
2023-01-27T12:59:52.775Z,94.10
2023-01-27T13:05:58.101Z,93.17
2023-01-27T13:12:21.822Z,92.83
2023-01-27T13:18:24.297Z,93.96
2023-01-27T13:24:41.958Z,95.19
2023-01-27T13:30:52.506Z,94.98
2023-01-27T13:37:24.322Z,95.29
2023-01-27T13:43:40.426Z,93.33
2023-01-27T13:49:48.127Z,93.86
2023-01-27T13:56:20.659Z,93.17
2023-01-27T14:02:28.329Z,93.99
2023-01-27T14:08:55.022Z,93.28
2023-01-27T14:15:26.441Z,92.75
2023-01-27T14:21:48.101Z,92.73
2023-01-27T14:28:21.524Z,93.78
2023-01-27T14:35:07.702Z,95.29
2023-01-27T14:41:44.247Z,94.18
2023-01-27T14:48:09.569Z,95.08
2023-01-27T14:54:45.035Z,94.71
2023-01-27T15:01:29.499Z,95.14
2023-01-27T15:08:02.211Z,96.46
2023-01-27T15:14:21.909Z,96.76
2023-01-27T15:20:51.290Z,96.71
2023-01-27T15:26:54.324Z,97.15
2023-01-27T15:32:56.729Z,97.18
2023-01-27T15:39:10.734Z,97.62
2023-01-27T15:45:39.292Z,96.70
2023-01-27T15:51:41.364Z,97.33
2023-01-27T15:57:43.692Z,97.84
2023-01-27T16:03:48.847Z,98.27
2023-01-27T16:09:52.539Z,98.58
2023-01-27T16:16:18.989Z,98.40
2023-01-27T16:22:23.522Z,99.20
2023-01-27T16:28:29.373Z,99.93
2023-01-27T16:34:41.430Z,99.82
2023-01-27T16:41:23.939Z,99.54
2023-01-27T16:47:39.727Z,99.58
2023-01-27T16:53:51.310Z,100.00
2023-01-27T16:59:54.084Z,100.00
2023-01-27T17:05:57.920Z,100.00
2023-01-27T17:12:00.055Z,100.00
2023-01-27T17:18:08.354Z,100.00
2023-01-27T17:24:37.766Z,98.87
2023-01-27T17:30:42.216Z,98.96
2023-01-27T17:37:16.822Z,99.41
2023-01-27T17:43:45.138Z,100.00
2023-01-27T17:49:50.103Z,100.00
2023-01-27T17:55:53.642Z,100.00
2023-01-27T18:01:59.665Z,100.00
2023-01-27T18:08:03.771Z,100.00
2023-01-27T18:14:17.974Z,100.00
2023-01-27T18:20:33.297Z,100.00
2023-01-27T18:26:38.107Z,99.91
2023-01-27T18:32:46.063Z,100.00
2023-01-27T18:38:49.929Z,100.00
2023-01-27T18:44:53.431Z,99.58
2023-01-27T18:50:55.327Z,99.19
2023-01-27T18:56:57.219Z,98.62
2023-01-27T19:03:00.960Z,98.57
2023-01-27T19:09:04.880Z,97.97
2023-01-27T19:15:08.081Z,97.73
2023-01-27T19:21:15.905Z,97.31
2023-01-27T19:27:19.141Z,97.39
2023-01-27T19:33:24.764Z,97.42
2023-01-27T19:39:27.770Z,97.17
2023-01-27T19:45:29.971Z,96.95
2023-01-27T19:51:33.115Z,96.59
2023-01-27T19:57:35.693Z,95.81
2023-01-27T20:03:37.595Z,95.13
2023-01-27T20:09:39.525Z,95.50
2023-01-27T20:15:42.099Z,95.30
2023-01-27T20:21:45.850Z,96.48
2023-01-27T20:27:51.162Z,95.96
2023-01-27T20:33:53.160Z,96.23
2023-01-27T20:39:55.139Z,96.21
2023-01-27T20:46:02.095Z,95.48
2023-01-27T20:52:04.013Z,95.56
2023-01-27T20:58:06.289Z,95.39
2023-01-27T21:04:08.174Z,95.58
2023-01-27T21:10:11.512Z,95.41
2023-01-27T21:16:14.330Z,93.95
2023-01-27T21:22:16.341Z,94.38
2023-01-27T21:28:18.504Z,91.71
2023-01-27T21:34:20.503Z,91.61
2023-01-27T21:40:23.523Z,91.07
2023-01-27T21:46:25.476Z,90.57
2023-01-27T21:52:33.582Z,91.26
2023-01-27T21:58:36.219Z,91.34
2023-01-27T22:05:06.124Z,91.01
2023-01-27T22:11:12.498Z,91.09
2023-01-27T22:17:14.587Z,90.16
2023-01-27T22:23:18.971Z,90.13
2023-01-27T22:29:20.911Z,90.38
2023-01-27T22:35:22.834Z,89.93
2023-01-27T22:41:24.754Z,89.82
2023-01-27T22:47:26.689Z,90.31
2023-01-27T22:53:28.571Z,90.19
2023-01-27T22:59:30.472Z,89.35
2023-01-27T23:05:32.564Z,90.16
2023-01-27T23:11:34.478Z,90.25
2023-01-27T23:17:36.479Z,90.64
2023-01-27T23:23:38.395Z,90.88
2023-01-27T23:29:40.303Z,90.72
2023-01-27T23:35:42.537Z,91.57
2023-01-27T23:41:44.461Z,91.42
2023-01-27T23:47:46.348Z,91.55
2023-01-27T23:53:49.237Z,91.20
2023-01-27T23:59:51.103Z,90.79
